Time;durP1;ratioP1;P1;durP2;ratioP2;P2;SDS_P1;SDS_P2;PMS_P1;PMS_P2;Temp;Humidity;BMP_temperature;BMP_pressure;BME280_temperature;BME280_humidity;BME280_pressure;Samples;Min_cycle;Max_cycle;Signal;HPM_P1;HPM_P2
2021/08/09 00:01:38;;;;;;;1999.90;999.90;;;15.60;99.90;;;;;;6197381;23;20912;-69
2021/08/09 00:04:07;;;;;;;1999.90;999.90;;;15.60;99.90;;;;;;6160978;23;20426;-69
2021/08/09 00:06:35;;;;;;;1999.90;999.90;;;15.60;99.90;;;;;;6197458;23;20706;-69
2021/08/09 00:09:05;;;;;;;1999.90;999.90;;;15.60;99.90;;;;;;6196584;23;20883;-69
2021/08/09 00:11:33;;;;;;;1999.90;999.90;;;15.60;99.90;;;;;;6196814;23;20916;-69
2021/08/09 00:14:01;;;;;;;1999.90;999.90;;;15.60;99.90;;;;;;6197000;23;20705;-69
2021/08/09 00:16:30;;;;;;;1999.90;999.90;;;15.60;99.90;;;;;;6196931;23;20857;-69
2021/08/09 00:18:58;;;;;;;1999.90;999.90;;;15.50;99.90;;;;;;6196889;23;20431;-69
2021/08/09 00:21:26;;;;;;;1999.90;999.90;;;15.60;99.90;;;;;;6196760;23;20855;-69
2021/08/09 00:23:54;;;;;;;1999.90;999.90;;;15.50;99.90;;;;;;6196874;23;20207;-69
2021/08/09 00:26:23;;;;;;;1999.90;999.90;;;15.60;99.90;;;;;;6196449;23;20448;-69
2021/08/09 00:28:52;;;;;;;1999.90;999.90;;;15.60;99.90;;;;;;6160507;23;20886;-69
2021/08/09 00:31:20;;;;;;;1999.90;999.90;;;15.60;99.90;;;;;;6196759;23;20399;-69
2021/08/09 00:33:48;;;;;;;1999.90;999.90;;;15.60;99.90;;;;;;6160412;23;20471;-69
2021/08/09 00:36:16;;;;;;;1999.90;999.90;;;15.60;99.90;;;;;;6160346;23;20395;-69
2021/08/09 00:38:47;;;;;;;1999.90;999.90;;;15.60;99.90;;;;;;6160045;23;20424;-69
2021/08/09 00:41:16;;;;;;;1999.90;999.90;;;15.50;99.90;;;;;;6187628;23;20878;-69
2021/08/09 00:43:46;;;;;;;1999.90;999.90;;;15.50;99.90;;;;;;6160346;23;20387;-69
2021/08/09 00:46:17;;;;;;;1999.90;999.90;;;15.50;99.90;;;;;;6161434;23;20715;-69
2021/08/09 00:48:49;;;;;;;1999.90;999.90;;;15.50;99.90;;;;;;6197064;23;20372;-69
2021/08/09 00:51:18;;;;;;;1999.90;999.90;;;15.50;99.90;;;;;;6160271;23;20416;-69
2021/08/09 00:53:49;;;;;;;1999.90;999.90;;;15.50;99.90;;;;;;6160352;23;20809;-69
2021/08/09 00:56:18;;;;;;;1999.90;999.90;;;15.50;99.90;;;;;;6160934;23;20423;-69
2021/08/09 00:58:48;;;;;;;1999.90;999.90;;;15.50;99.90;;;;;;6160163;23;20192;-69
2021/08/09 01:01:16;;;;;;;1999.90;999.90;;;15.50;99.90;;;;;;6160137;23;20386;-69
2021/08/09 01:03:50;;;;;;;1999.90;999.90;;;15.50;99.90;;;;;;6161215;23;20386;-69
2021/08/09 01:06:19;;;;;;;1999.90;999.90;;;15.40;99.90;;;;;;6160249;23;20470;-69
2021/08/09 01:08:58;;;;;;;1999.90;999.90;;;15.50;99.90;;;;;;6160230;23;20450;-69
2021/08/09 01:11:31;;;;;;;1999.90;999.90;;;15.40;99.90;;;;;;6196492;23;20393;-69
2021/08/09 01:14:22;;;;;;;1999.90;999.90;;;15.40;99.90;;;;;;6159553;23;20756;-69
2021/08/09 01:16:51;;;;;;;1999.90;999.90;;;15.40;99.90;;;;;;6160650;23;20482;-69
2021/08/09 01:19:32;;;;;;;1999.90;999.90;;;15.40;99.90;;;;;;6196702;23;20469;-69
2021/08/09 01:22:07;;;;;;;1999.90;999.90;;;15.30;99.90;;;;;;6160072;23;20437;-69
2021/08/09 01:24:47;;;;;;;1999.90;999.90;;;15.30;99.90;;;;;;6160163;23;20924;-69
2021/08/09 01:27:27;;;;;;;1999.90;999.90;;;15.30;99.90;;;;;;6160288;23;20453;-69
2021/08/09 01:29:59;;;;;;;1999.90;999.90;;;15.30;99.90;;;;;;6160448;23;20179;-69
2021/08/09 01:32:28;;;;;;;1999.90;999.90;;;15.30;99.90;;;;;;6159908;23;20414;-69
2021/08/09 01:34:58;;;;;;;1999.90;999.90;;;15.30;99.90;;;;;;6159898;23;20920;-69
2021/08/09 01:37:28;;;;;;;1999.90;999.90;;;15.30;99.90;;;;;;6159898;23;20424;-69
2021/08/09 01:39:57;;;;;;;1999.90;999.90;;;15.20;99.90;;;;;;6159847;23;20406;-69
2021/08/09 01:42:27;;;;;;;1999.90;999.90;;;15.20;99.90;;;;;;6154805;23;20477;-69
2021/08/09 01:44:56;;;;;;;1999.90;999.90;;;15.20;99.90;;;;;;6154708;23;20387;-69
2021/08/09 01:47:25;;;;;;;1999.90;999.90;;;15.20;99.90;;;;;;6154780;23;20413;-69
2021/08/09 01:49:55;;;;;;;1999.90;999.90;;;15.20;99.90;;;;;;6154778;23;20446;-69
2021/08/09 01:52:25;;;;;;;1999.90;999.90;;;15.20;99.90;;;;;;6154923;23;20437;-69
2021/08/09 01:54:54;;;;;;;1999.90;999.90;;;15.20;99.90;;;;;;6153556;23;20496;-69
2021/08/09 01:57:23;;;;;;;1999.90;999.90;;;15.20;99.90;;;;;;6155193;23;20181;-69
2021/08/09 01:59:53;;;;;;;1999.90;999.90;;;15.20;99.90;;;;;;6154378;23;20440;-69
2021/08/09 02:02:27;;;;;;;1999.90;999.90;;;15.20;99.90;;;;;;6155179;23;20936;-70
2021/08/09 02:05:03;;;;;;;1999.90;999.90;;;15.20;99.90;;;;;;6155121;23;20395;-69
2021/08/09 02:07:34;;;;;;;1999.90;999.90;;;15.20;99.90;;;;;;6154692;23;20416;-70
2021/08/09 02:10:06;;;;;;;1999.90;999.90;;;15.20;99.90;;;;;;6154893;23;20384;-69
2021/08/09 02:12:41;;;;;;;1999.90;999.90;;;15.10;99.90;;;;;;6154607;23;20486;-69
2021/08/09 02:15:12;;;;;;;1999.90;999.90;;;15.10;99.90;;;;;;6155897;23;20467;-70
2021/08/09 02:17:47;;;;;;;1999.90;999.90;;;15.10;99.90;;;;;;6154750;23;20474;-69
2021/08/09 02:20:25;;;;;;;1999.90;999.90;;;15.10;99.90;;;;;;6155070;23;20394;-69
2021/08/09 02:23:02;;;;;;;1999.90;999.90;;;15.10;99.90;;;;;;6154797;23;20439;-69
2021/08/09 02:25:34;;;;;;;1999.90;999.90;;;15.10;99.90;;;;;;6154054;23;20403;-69
2021/08/09 02:28:07;;;;;;;1999.90;999.90;;;15.10;99.90;;;;;;6154519;23;20180;-69
2021/08/09 02:30:41;;;;;;;1999.90;999.90;;;15.10;99.90;;;;;;6154072;23;20403;-69
2021/08/09 02:33:11;;;;;;;1999.90;999.90;;;15.20;99.90;;;;;;6154621;23;20196;-69
2021/08/09 02:35:42;;;;;;;1999.90;999.90;;;15.20;99.90;;;;;;6154565;23;20419;-69
2021/08/09 02:38:11;;;;;;;1999.90;999.90;;;15.20;99.90;;;;;;6154537;23;20383;-69
2021/08/09 02:40:41;;;;;;;1999.90;999.90;;;15.10;99.90;;;;;;6156831;23;20422;-70
2021/08/09 02:43:10;;;;;;;1999.90;999.90;;;15.10;99.90;;;;;;6159134;23;20742;-69
2021/08/09 02:45:41;;;;;;;1999.90;999.90;;;15.10;99.90;;;;;;6159156;23;20394;-69
2021/08/09 02:48:09;;;;;;;1999.90;999.90;;;15.10;99.90;;;;;;6159536;23;20435;-69
2021/08/09 02:50:40;;;;;;;1999.90;999.90;;;15.10;99.90;;;;;;6159089;23;20401;-69
2021/08/09 02:53:08;;;;;;;1999.90;999.90;;;15.10;99.90;;;;;;6159241;23;20410;-69
2021/08/09 02:55:37;;;;;;;1999.90;999.90;;;15.00;99.90;;;;;;6159299;23;20470;-69
2021/08/09 02:58:07;;;;;;;1999.90;999.90;;;15.00;99.90;;;;;;6195897;23;20453;-69
2021/08/09 03:00:39;;;;;;;1999.90;999.90;;;15.00;99.90;;;;;;6160477;23;20382;-69
2021/08/09 03:03:08;;;;;;;1999.90;999.90;;;15.00;99.90;;;;;;6157800;23;20814;-69
2021/08/09 03:05:37;;;;;;;1999.90;999.90;;;15.10;99.90;;;;;;6159421;23;20184;-69
2021/08/09 03:08:06;;;;;;;1999.90;999.90;;;15.10;99.90;;;;;;6159225;23;20394;-69
2021/08/09 03:10:34;;;;;;;1999.90;999.90;;;15.00;99.90;;;;;;6159263;23;20386;-69
2021/08/09 03:13:07;;;;;;;1999.90;999.90;;;15.00;99.90;;;;;;6196209;23;20417;-69
2021/08/09 03:15:36;;;;;;;1999.90;999.90;;;15.00;99.90;;;;;;6159343;23;20433;-69
2021/08/09 03:18:06;;;;;;;1999.90;999.90;;;15.00;99.90;;;;;;6159444;23;20387;-69
2021/08/09 03:20:34;;;;;;;1999.90;999.90;;;15.00;99.90;;;;;;6195523;23;20453;-69
2021/08/09 03:23:02;;;;;;;1999.90;999.90;;;14.90;99.90;;;;;;6195496;23;20423;-69
2021/08/09 03:25:31;;;;;;;1999.90;999.90;;;14.90;99.90;;;;;;6159179;23;20423;-69
2021/08/09 03:27:59;;;;;;;1999.90;999.90;;;14.90;99.90;;;;;;6159125;23;20920;-70
2021/08/09 03:30:27;;;;;;;1999.90;999.90;;;14.90;99.90;;;;;;6193776;23;20401;-69
2021/08/09 03:32:56;;;;;;;1999.90;999.90;;;15.00;99.90;;;;;;6159016;23;20621;-69
2021/08/09 03:35:25;;;;;;;1999.90;999.90;;;15.00;99.90;;;;;;6157790;23;20415;-69
2021/08/09 03:37:55;;;;;;;1999.90;999.90;;;15.00;99.90;;;;;;6159027;23;20182;-69
2021/08/09 03:40:23;;;;;;;1999.90;999.90;;;15.00;99.90;;;;;;6159271;23;20530;-69
2021/08/09 03:42:53;;;;;;;1999.90;999.90;;;15.00;99.90;;;;;;6154207;23;20465;-69
2021/08/09 03:45:21;;;;;;;1999.90;999.90;;;14.90;99.90;;;;;;6153844;23;20969;-69
2021/08/09 03:47:49;;;;;;;1999.90;999.90;;;14.90;99.90;;;;;;6153991;23;20442;-69
2021/08/09 03:50:17;;;;;;;1999.90;999.90;;;14.90;99.90;;;;;;6154135;23;20418;-69
2021/08/09 03:52:48;;;;;;;1999.90;999.90;;;14.80;99.90;;;;;;6154258;23;20443;-69
2021/08/09 03:55:18;;;;;;;1999.90;999.90;;;14.80;99.90;;;;;;6153944;23;20474;-69
2021/08/09 03:57:46;;;;;;;1999.90;999.90;;;14.80;99.90;;;;;;6153881;23;20466;-69
2021/08/09 04:00:15;;;;;;;1999.90;999.90;;;14.80;99.90;;;;;;6153929;23;20411;-69
2021/08/09 04:02:47;;;;;;;1999.90;999.90;;;14.80;99.90;;;;;;6152851;23;20413;-69
2021/08/09 04:05:35;;;;;;;1999.90;999.90;;;14.80;99.90;;;;;;6154993;23;20182;-69
2021/08/09 04:08:05;;;;;;;1999.90;999.90;;;14.80;99.90;;;;;;6154157;23;20420;-69
2021/08/09 04:10:34;;;;;;;1999.90;999.90;;;14.80;99.90;;;;;;6153967;23;20866;-69
2021/08/09 04:13:02;;;;;;;1999.90;999.90;;;14.80;99.90;;;;;;6154027;23;20920;-69
2021/08/09 04:15:31;;;;;;;1999.90;999.90;;;14.80;99.90;;;;;;6154199;23;20391;-69
2021/08/09 04:18:02;;;;;;;1999.90;999.90;;;14.80;99.90;;;;;;6153633;23;20405;-69
2021/08/09 04:20:30;;;;;;;1999.90;999.90;;;14.80;99.90;;;;;;6154135;23;20442;-69
2021/08/09 04:22:58;;;;;;;1999.90;999.90;;;14.80;99.90;;;;;;6155336;23;20409;-69
2021/08/09 04:25:28;;;;;;;1999.90;999.90;;;14.80;99.90;;;;;;6167175;23;20404;-69
2021/08/09 04:27:58;;;;;;;1999.90;999.90;;;14.80;99.90;;;;;;6156469;23;20382;-69
2021/08/09 04:30:26;;;;;;;1999.90;999.90;;;14.80;99.90;;;;;;6155675;23;20901;-69
2021/08/09 04:32:54;;;;;;;1999.90;999.90;;;14.80;99.90;;;;;;6155712;23;20450;-69
2021/08/09 04:35:26;;;;;;;1999.90;999.90;;;14.80;99.90;;;;;;6155348;23;20395;-69
2021/08/09 04:37:56;;;;;;;1999.90;999.90;;;14.80;99.90;;;;;;6155696;23;20398;-69
2021/08/09 04:40:24;;;;;;;1999.90;999.90;;;14.80;99.90;;;;;;6154169;23;20821;-69
2021/08/09 04:42:55;;;;;;;1999.90;999.90;;;14.90;99.90;;;;;;6155629;23;20276;-69
2021/08/09 04:45:25;;;;;;;1999.90;999.90;;;15.00;99.90;;;;;;6154434;23;20482;-69
2021/08/09 04:47:54;;;;;;;1999.90;999.90;;;15.00;99.90;;;;;;6155475;23;20652;-69
2021/08/09 04:50:23;;;;;;;1999.90;999.90;;;15.10;99.90;;;;;;6155435;23;20394;-69
2021/08/09 04:52:51;;;;;;;1999.90;999.90;;;15.10;99.90;;;;;;6155354;23;20436;-69
2021/08/09 04:55:26;;;;;;;1999.90;999.90;;;15.10;99.90;;;;;;6155583;23;20414;-69
2021/08/09 04:57:57;;;;;;;1999.90;999.90;;;15.10;99.90;;;;;;6155489;23;20421;-69
2021/08/09 05:00:26;;;;;;;1999.90;999.90;;;15.10;99.90;;;;;;6155285;23;20507;-69
2021/08/09 05:02:55;;;;;;;1999.90;999.90;;;15.10;99.90;;;;;;6155488;23;20825;-69
2021/08/09 05:05:23;;;;;;;1999.90;999.90;;;15.10;99.90;;;;;;6154853;23;20482;-69
2021/08/09 05:07:54;;;;;;;1999.90;999.90;;;15.20;99.90;;;;;;6155448;23;20384;-69
2021/08/09 05:10:24;;;;;;;1999.90;999.90;;;15.20;99.90;;;;;;6155437;23;20881;-69
2021/08/09 05:12:54;;;;;;;1999.90;999.90;;;15.20;99.90;;;;;;6154556;23;20420;-69
2021/08/09 05:15:24;;;;;;;1999.90;999.90;;;15.30;99.90;;;;;;6167181;23;20176;-69
2021/08/09 05:17:53;;;;;;;1999.90;999.90;;;15.30;99.90;;;;;;6154453;23;20889;-69
2021/08/09 05:20:22;;;;;;;1999.90;999.90;;;15.40;99.90;;;;;;6156225;23;20545;-69
2021/08/09 05:22:50;;;;;;;1999.90;999.90;;;15.40;99.90;;;;;;6167265;23;20417;-69
2021/08/09 05:25:21;;;;;;;1999.90;999.90;;;15.40;99.90;;;;;;6155194;23;20889;-69
2021/08/09 05:27:50;;;;;;;1999.90;999.90;;;15.40;99.90;;;;;;6155288;23;20386;-69
2021/08/09 05:30:19;;;;;;;1999.90;999.90;;;15.40;99.90;;;;;;6166912;23;20397;-69
2021/08/09 05:32:49;;;;;;;1999.90;999.90;;;15.40;99.90;;;;;;6154998;23;20464;-69
2021/08/09 05:35:18;;;;;;;1999.90;999.90;;;15.50;99.90;;;;;;6167206;23;20405;-69
2021/08/09 05:37:47;;;;;;;1999.90;999.90;;;15.50;99.90;;;;;;6166623;23;20829;-69
2021/08/09 05:40:17;;;;;;;1999.90;999.90;;;15.50;99.90;;;;;;6155379;23;20978;-69
2021/08/09 05:42:48;;;;;;;1999.90;999.90;;;15.50;99.90;;;;;;6155044;23;20441;-69
2021/08/09 05:45:18;;;;;;;1999.90;999.90;;;15.60;99.90;;;;;;6155448;23;20448;-69
2021/08/09 05:47:48;;;;;;;1999.90;999.90;;;15.60;99.90;;;;;;6155033;23;20416;-69
2021/08/09 05:50:16;;;;;;;1999.90;999.90;;;15.60;99.90;;;;;;6155048;23;20417;-69
2021/08/09 05:53:03;;;;;;;1999.90;999.90;;;15.70;99.90;;;;;;6154430;23;20454;-69
2021/08/09 05:55:32;;;;;;;1999.90;999.90;;;15.70;99.90;;;;;;6155332;23;20173;-69
2021/08/09 05:58:04;;;;;;;1999.90;999.90;;;15.80;99.90;;;;;;6154471;23;20504;-69
2021/08/09 06:00:34;;;;;;;1999.90;999.90;;;15.80;99.90;;;;;;6155263;23;20411;-69
2021/08/09 06:03:08;;;;;;;1999.90;999.90;;;15.80;99.90;;;;;;6155390;23;20469;-69
2021/08/09 06:05:52;;;;;;;1999.90;999.90;;;15.80;99.90;;;;;;6155122;23;20416;-69
2021/08/09 06:08:23;;;;;;;1999.90;999.90;;;15.90;99.90;;;;;;6156147;23;20410;-69
2021/08/09 06:10:52;;;;;;;1999.90;999.90;;;15.90;99.90;;;;;;6166487;23;20432;-69
2021/08/09 06:13:21;;;;;;;1999.90;999.90;;;16.00;99.90;;;;;;6154837;23;20435;-70
2021/08/09 06:15:49;;;;;;;1999.90;999.90;;;16.10;99.90;;;;;;6155207;23;20904;-69
2021/08/09 06:18:24;;;;;;;1999.90;999.90;;;16.10;99.90;;;;;;6155042;23;20397;-69
2021/08/09 06:20:52;;;;;;;1999.90;999.90;;;16.20;99.90;;;;;;6155843;23;20468;-69
2021/08/09 06:23:21;;;;;;;1999.90;999.90;;;16.20;99.90;;;;;;6155050;23;20432;-69
2021/08/09 06:25:50;;;;;;;1999.90;999.90;;;16.30;99.90;;;;;;6154820;23;20928;-70
2021/08/09 06:28:18;;;;;;;1999.90;999.90;;;16.30;99.90;;;;;;6154951;23;20451;-69
2021/08/09 06:30:46;;;;;;;1999.90;999.90;;;16.40;99.90;;;;;;6154721;23;20409;-69
2021/08/09 06:33:19;;;;;;;1999.90;999.90;;;16.40;99.90;;;;;;6166460;23;20436;-69
2021/08/09 06:35:50;;;;;;;1999.90;999.90;;;16.40;99.90;;;;;;6153473;23;20537;-70
2021/08/09 06:38:20;;;;;;;1999.90;999.90;;;16.50;99.90;;;;;;6156004;23;20199;-69
2021/08/09 06:40:48;;;;;;;1999.90;999.90;;;16.60;99.90;;;;;;6158862;23;20466;-70
2021/08/09 06:43:16;;;;;;;1999.90;999.90;;;16.60;99.90;;;;;;6159650;23;20506;-69
2021/08/09 06:45:53;;;;;;;1999.90;999.90;;;16.60;99.90;;;;;;6159711;23;20461;-69
2021/08/09 06:48:22;;;;;;;1999.90;999.90;;;16.70;99.90;;;;;;6159746;23;20415;-70
2021/08/09 06:50:52;;;;;;;1999.90;999.90;;;16.90;99.90;;;;;;6159662;23;20443;-69
2021/08/09 06:53:21;;;;;;;1999.90;999.90;;;17.00;99.90;;;;;;6159428;23;20467;-70
2021/08/09 06:55:49;;;;;;;1999.90;999.90;;;17.10;99.90;;;;;;6195914;23;20463;-70
2021/08/09 06:58:22;;;;;;;1999.90;999.90;;;17.20;99.90;;;;;;6160287;23;20470;-69
2021/08/09 07:00:51;;;;;;;1999.90;999.90;;;17.30;99.90;;;;;;6158636;23;20419;-69
2021/08/09 07:03:21;;;;;;;1999.90;999.90;;;17.50;99.90;;;;;;6159404;23;20270;-69
2021/08/09 07:05:49;;;;;;;1999.90;999.90;;;17.60;99.90;;;;;;6158649;23;20420;-69
2021/08/09 07:08:23;;;;;;;1999.90;999.90;;;17.80;99.90;;;;;;6159474;23;20463;-69
2021/08/09 07:10:52;;;;;;;1999.90;999.90;;;17.90;99.90;;;;;;6159154;23;20479;-70
2021/08/09 07:13:22;;;;;;;1999.90;999.90;;;18.00;99.90;;;;;;6196523;23;20419;-70
2021/08/09 07:15:51;;;;;;;1999.90;987.50;;;18.00;99.90;;;;;;6196084;23;20405;-70
2021/08/09 07:18:19;;;;;;;1999.90;990.20;;;18.00;99.90;;;;;;6159577;23;20422;-70
2021/08/09 07:20:48;;;;;;;1999.90;991.40;;;18.20;99.90;;;;;;6159366;23;20453;-70
2021/08/09 07:23:16;;;;;;;1999.90;990.50;;;18.30;99.90;;;;;;6159331;23;20755;-69
2021/08/09 07:25:48;;;;;;;1999.90;977.87;;;18.50;99.90;;;;;;6159413;23;20495;-70
2021/08/09 07:28:17;;;;;;;1999.90;980.97;;;18.70;99.90;;;;;;6159204;23;20422;-70
2021/08/09 07:30:45;;;;;;;1999.90;977.57;;;18.80;99.90;;;;;;6159105;23;20747;-69
2021/08/09 07:33:14;;;;;;;1999.90;960.80;;;18.90;99.90;;;;;;6159001;23;20776;-69
2021/08/09 07:35:42;;;;;;;1999.90;965.40;;;19.00;99.90;;;;;;6195476;23;20408;-69
2021/08/09 07:38:11;;;;;;;1999.90;999.90;;;19.00;99.90;;;;;;6159124;23;20887;-69
2021/08/09 07:40:39;;;;;;;1999.90;969.27;;;19.10;99.90;;;;;;6159038;23;20577;-69
2021/08/09 07:43:09;;;;;;;1999.90;977.83;;;19.30;99.90;;;;;;6159306;23;20494;-69
2021/08/09 07:45:37;;;;;;;1999.90;999.10;;;19.40;99.90;;;;;;6159455;23;20420;-69
2021/08/09 07:48:06;;;;;;;1999.90;992.20;;;19.50;99.90;;;;;;6195574;23;20400;-69
2021/08/09 07:50:41;;;;;;;1925.43;973.30;;;19.60;99.90;;;;;;6159121;23;20891;-68
2021/08/09 07:53:12;;;;;;;1799.63;977.70;;;19.70;99.90;;;;;;6159038;23;20438;-70
2021/08/09 07:55:42;;;;;;;1936.17;993.53;;;19.70;99.90;;;;;;6160892;23;20810;-70
2021/08/09 07:58:11;;;;;;;1712.27;953.70;;;19.90;99.90;;;;;;6198716;23;20407;-70
2021/08/09 08:00:39;;;;;;;1523.00;928.23;;;19.90;99.90;;;;;;6161835;23;20417;-70
2021/08/09 08:03:09;;;;;;;1811.73;967.17;;;20.00;99.90;;;;;;6162278;23;20458;-70
2021/08/09 08:05:40;;;;;;;1881.80;962.13;;;20.00;99.90;;;;;;6162039;23;20486;-70
2021/08/09 08:08:10;;;;;;;1560.87;904.13;;;20.10;99.90;;;;;;6162129;23;20355;-69
2021/08/09 08:10:44;;;;;;;1637.73;929.67;;;20.10;99.90;;;;;;6162148;23;20404;-70
2021/08/09 08:13:14;;;;;;;1295.83;856.53;;;20.30;99.90;;;;;;6198152;23;20503;-70
2021/08/09 08:15:42;;;;;;;1214.63;827.70;;;20.30;99.90;;;;;;6162235;23;20416;-70
2021/08/09 08:18:11;;;;;;;1132.90;794.43;;;20.40;99.90;;;;;;6161847;23;20470;-70
2021/08/09 08:20:40;;;;;;;646.20;584.77;;;20.50;99.90;;;;;;6161673;23;20411;-69
2021/08/09 08:23:09;;;;;;;701.73;629.57;;;20.60;99.90;;;;;;6161634;23;20664;-69
2021/08/09 08:25:37;;;;;;;663.57;582.63;;;20.60;99.90;;;;;;6161848;23;20914;-70
2021/08/09 08:28:05;;;;;;;668.53;604.17;;;20.70;99.90;;;;;;6161606;23;20412;-70
2021/08/09 08:30:35;;;;;;;815.33;660.10;;;20.70;99.90;;;;;;6198106;23;20400;-70
2021/08/09 08:33:09;;;;;;;1021.50;763.43;;;20.70;99.90;;;;;;6161568;23;20430;-70
2021/08/09 08:35:38;;;;;;;587.00;539.50;;;20.70;99.90;;;;;;6161706;23;20419;-70
2021/08/09 08:38:06;;;;;;;602.20;550.40;;;20.80;99.90;;;;;;6198362;23;20396;-70
2021/08/09 08:40:42;;;;;;;979.88;754.95;;;20.90;99.90;;;;;;6161629;23;20489;-70
2021/08/09 08:43:19;;;;;;;701.93;626.73;;;20.90;99.90;;;;;;6161569;23;20267;-70
2021/08/09 08:45:56;;;;;;;1033.17;715.60;;;21.00;99.90;;;;;;6161907;23;20905;-70
2021/08/09 08:48:27;;;;;;;576.40;532.83;;;21.20;99.90;;;;;;6161690;23;20431;-70
2021/08/09 08:51:15;;;;;;;602.00;552.50;;;21.20;99.90;;;;;;6161480;23;20735;-70
2021/08/09 08:53:45;;;;;;;491.67;460.30;;;21.30;99.90;;;;;;6161976;23;20494;-70
2021/08/09 08:56:13;;;;;;;476.10;446.63;;;21.30;99.90;;;;;;6197812;23;20792;-70
2021/08/09 08:58:41;;;;;;;489.93;457.70;;;21.30;99.90;;;;;;6161518;23;20415;-70
2021/08/09 09:01:11;;;;;;;529.30;491.37;;;21.20;99.90;;;;;;6198418;23;20483;-70
2021/08/09 09:03:40;;;;;;;365.77;345.03;;;21.20;99.90;;;;;;6197823;23;20424;-70
2021/08/09 09:06:10;;;;;;;460.60;430.97;;;21.20;99.90;;;;;;6197761;23;20407;-70
2021/08/09 09:08:40;;;;;;;478.97;448.97;;;21.20;99.90;;;;;;6197871;23;20482;-70
2021/08/09 09:11:10;;;;;;;413.83;389.07;;;21.30;99.90;;;;;;6197622;23;20946;-70
2021/08/09 09:13:53;;;;;;;524.30;486.43;;;21.30;99.90;;;;;;6162337;23;20438;-70
2021/08/09 09:16:22;;;;;;;579.97;524.57;;;21.30;99.90;;;;;;6187963;23;20396;-70
2021/08/09 09:18:53;;;;;;;456.50;426.93;;;21.30;99.90;;;;;;6187688;23;20408;-70
2021/08/09 09:21:30;;;;;;;1014.57;713.60;;;21.30;99.90;;;;;;6196868;23;20410;-70
2021/08/09 09:24:11;;;;;;;696.23;626.13;;;21.20;99.90;;;;;;6160254;23;20407;-70
2021/08/09 09:26:42;;;;;;;521.03;485.43;;;21.20;99.90;;;;;;6186593;23;20434;-70
2021/08/09 09:29:12;;;;;;;655.60;596.27;;;21.20;99.90;;;;;;6196828;23;20863;-70
2021/08/09 09:31:44;;;;;;;502.93;466.93;;;21.20;99.90;;;;;;6196652;23;20789;-70
2021/08/09 09:34:14;;;;;;;453.30;423.00;;;21.20;99.90;;;;;;6196881;23;20376;-69
2021/08/09 09:36:50;;;;;;;437.60;410.00;;;21.20;99.90;;;;;;6196505;23;20396;-70
2021/08/09 09:39:30;;;;;;;486.33;453.83;;;21.20;99.90;;;;;;6195891;23;20766;-70
2021/08/09 09:41:59;;;;;;;465.93;434.90;;;21.20;99.90;;;;;;6155260;23;20452;-70
2021/08/09 09:44:29;;;;;;;362.50;342.03;;;21.20;99.90;;;;;;6166735;23;20735;-70
2021/08/09 09:47:19;;;;;;;436.40;410.00;;;21.20;99.90;;;;;;6167147;23;20873;-70
2021/08/09 09:49:48;;;;;;;384.63;362.53;;;21.20;99.90;;;;;;6155495;23;20411;-70
2021/08/09 09:52:34;;;;;;;1718.57;926.40;;;21.20;99.90;;;;;;6165461;23;20794;-70
2021/08/09 09:55:06;;;;;;;172.57;163.67;;;21.50;99.50;;;;;;6167228;23;20622;-70
2021/08/09 09:57:35;;;;;;;470.83;440.03;;;21.50;99.70;;;;;;6166959;23;20381;-70
2021/08/09 10:00:08;;;;;;;387.27;364.23;;;21.60;99.70;;;;;;6166605;23;20401;-70
2021/08/09 10:02:42;;;;;;;309.63;291.57;;;21.70;99.80;;;;;;6156601;23;20447;-70
2021/08/09 10:05:10;;;;;;;251.00;237.33;;;21.80;99.70;;;;;;6167314;23;20476;-70
2021/08/09 10:07:39;;;;;;;322.23;303.77;;;21.80;99.60;;;;;;6166457;23;20401;-70
2021/08/09 10:10:10;;;;;;;308.17;290.53;;;21.80;99.50;;;;;;6166356;23;20393;-70
2021/08/09 10:12:39;;;;;;;751.00;674.20;;;21.90;99.60;;;;;;6165273;23;20483;-70
2021/08/09 10:15:09;;;;;;;133.77;127.37;;;21.90;98.90;;;;;;6166291;23;20435;-70
2021/08/09 10:17:38;;;;;;;238.50;225.33;;;22.00;99.00;;;;;;6166615;23;20400;-70
2021/08/09 10:20:10;;;;;;;302.10;285.30;;;22.00;99.00;;;;;;6166059;23;20432;-69
2021/08/09 10:22:39;;;;;;;441.17;412.13;;;21.90;99.00;;;;;;6166134;23;20439;-70
2021/08/09 10:25:09;;;;;;;435.80;408.77;;;21.90;99.10;;;;;;6166233;23;20389;-70
2021/08/09 10:27:53;;;;;;;453.83;425.50;;;21.80;99.20;;;;;;6154813;23;20425;-70
2021/08/09 10:30:22;;;;;;;444.27;414.37;;;21.80;99.20;;;;;;6154755;23;20412;-70
2021/08/09 10:32:52;;;;;;;457.00;427.83;;;21.70;99.20;;;;;;6166037;23;20496;-70
2021/08/09 10:36:06;;;;;;;418.90;394.00;;;21.70;99.30;;;;;;6156879;23;20443;-70
2021/08/09 10:38:38;;;;;;;437.07;408.27;;;21.80;99.10;;;;;;6166010;23;20380;-70
2021/08/09 10:41:38;;;;;;;1000.97;757.20;;;21.80;99.30;;;;;;6153117;23;20821;-70
2021/08/09 10:44:27;;;;;;;112.33;106.47;;;21.90;98.60;;;;;;6154467;23;21053;-70
2021/08/09 10:46:57;;;;;;;1622.72;902.25;;;22.00;98.50;;;;;;6164520;23;20401;-70
2021/08/09 10:49:50;;;;;;;308.50;289.07;;;22.10;98.10;;;;;;6155149;23;20165;-70
2021/08/09 10:52:48;;;;;;;582.80;536.97;;;22.10;98.30;;;;;;6166218;23;20795;-70
2021/08/09 10:55:46;;;;;;;452.23;422.60;;;22.20;98.40;;;;;;6166300;23;20389;-70
2021/08/09 10:58:53;;;;;;;491.83;457.63;;;22.20;98.60;;;;;;6165883;23;20388;-70
2021/08/09 11:01:23;;;;;;;511.77;474.93;;;22.30;98.60;;;;;;6165865;23;20479;-70
2021/08/09 11:04:16;;;;;;;472.50;440.07;;;22.20;98.70;;;;;;6166287;23;20432;-70
2021/08/09 11:06:59;;;;;;;547.83;505.73;;;22.30;98.80;;;;;;6166187;23;20875;-70
2021/08/09 11:09:44;;;;;;;419.90;394.77;;;22.30;98.80;;;;;;6154475;23;20457;-70
2021/08/09 11:12:28;;;;;;;819.57;725.60;;;22.40;98.80;;;;;;6164979;23;20401;-70
2021/08/09 11:15:16;;;;;;;148.47;141.27;;;22.50;98.20;;;;;;6152326;23;20439;-70
2021/08/09 11:17:53;;;;;;;316.70;298.77;;;22.50;98.10;;;;;;6165789;23;20389;-70
2021/08/09 11:20:24;;;;;;;397.87;371.63;;;22.60;98.20;;;;;;6166139;23;20924;-70
2021/08/09 11:23:01;;;;;;;262.60;248.27;;;22.60;98.10;;;;;;6165666;23;20767;-70
2021/08/09 11:25:33;;;;;;;346.57;325.93;;;22.60;98.00;;;;;;6154290;23;20408;-70
2021/08/09 11:28:11;;;;;;;407.33;381.93;;;22.60;98.10;;;;;;6166450;23;20717;-70
2021/08/09 11:30:45;;;;;;;413.52;385.25;;;22.50;98.10;;;;;;6154062;23;20352;-70
2021/08/09 11:33:26;;;;;;;524.00;485.20;;;22.60;98.30;;;;;;6165583;23;20191;-70
2021/08/09 11:35:56;;;;;;;441.10;413.13;;;22.70;98.50;;;;;;6154199;23;20444;-70
2021/08/09 11:38:25;;;;;;;407.70;381.17;;;22.70;98.50;;;;;;6154309;23;20812;-70
2021/08/09 11:40:55;;;;;;;425.30;397.03;;;22.80;98.40;;;;;;6170754;23;20804;-70
2021/08/09 11:43:26;;;;;;;275.77;260.07;;;22.80;98.30;;;;;;6158848;23;20492;-70
2021/08/09 11:45:56;;;;;;;353.47;328.50;;;22.80;98.30;;;;;;6195857;23;20919;-70
2021/08/09 11:48:27;;;;;;;653.57;593.73;;;22.80;98.10;;;;;;6195688;23;20490;-70
2021/08/09 11:50:58;;;;;;;567.40;518.47;;;22.80;98.10;;;;;;6195650;23;20396;-70
2021/08/09 11:53:46;;;;;;;713.23;650.77;;;22.80;98.10;;;;;;6195383;23;20387;-70
2021/08/09 11:56:16;;;;;;;1208.10;906.17;;;22.80;98.00;;;;;;6185297;23;20463;-70
2021/08/09 11:58:45;;;;;;;312.07;290.07;;;22.80;98.00;;;;;;6195390;23;20619;-70
2021/08/09 12:01:21;;;;;;;665.88;602.97;;;22.90;98.10;;;;;;6185598;23;20416;-70
2021/08/09 12:04:04;;;;;;;837.60;749.93;;;22.90;98.20;;;;;;6195408;23;20511;-70
2021/08/09 12:06:32;;;;;;;683.60;618.77;;;22.90;98.30;;;;;;6195843;23;20385;-70
2021/08/09 12:09:01;;;;;;;785.13;705.53;;;22.90;98.30;;;;;;6195386;23;20487;-70
2021/08/09 12:11:32;;;;;;;673.33;614.03;;;22.90;98.40;;;;;;6195341;23;20736;-70
2021/08/09 12:14:10;;;;;;;640.60;584.10;;;22.90;98.30;;;;;;6159062;23;20902;-70
2021/08/09 12:16:46;;;;;;;538.10;495.03;;;22.90;98.10;;;;;;6195715;23;20759;-70
2021/08/09 12:19:15;;;;;;;746.33;674.87;;;22.90;98.10;;;;;;6195698;23;20380;-71
2021/08/09 12:21:43;;;;;;;621.30;569.93;;;22.80;97.90;;;;;;6195497;23;20421;-71
2021/08/09 12:24:21;;;;;;;1711.22;989.63;;;22.80;98.00;;;;;;6194761;23;20411;-70